Weather at Klawock Seaplane Base [CLOSED]

Public forecast

Using degrees Fahrenheit for public forecast. Weather courtesy of forecast.io.

Closest aviation weather report (METAR) to Klawock Seaplane Base

Closest report is Klawock Airport, 1.7 nm (3.2 km) NNE.

2024/05/29 03:05 (retrieved 6 minutes ago)

PAKW 290305Z AUTO 00000KT 10SM FEW008 BKN014 OVC030 09/07 A2995 RMK AO2 T00940072 TSNO

Closest aviation forecast (TAF) to Klawock Seaplane Base

Forecast is more than 6 hours old.

Closest forecast is Dease Lake Airport, 199.3 nm (369.0 km) NNE.

2024/05/28 18:00 (retrieved 9 hours ago)

TAF CYDL 281740Z 2818/2823 VRB03KT P6SM OVC070 FM281900 20006KT P6SM SCT020 BKN050 TEMPO 2819/2823 P6SM -SHRA BKN020 RMK FCST BASED ON AUTO OBS NXT FCST BY 291200Z